Weather at Bethlehem Heliport

Public forecast

Using degrees Celsius for public forecast. Weather courtesy of forecast.io.

Closest aviation weather report (METAR) to Bethlehem Heliport

Closest report is Ben Gurion International Airport, 24.4 nm (45.3 km) NW.

2024/04/16 17:50 (retrieved 31 minutes ago)

LLBG 161750Z 03004KT CAVOK 24/12 Q1013 NOSIG

Closest aviation forecast (TAF) to Bethlehem Heliport

Closest forecast is Ben Gurion International Airport, 24.4 nm (45.3 km) NW.

2024/04/16 18:09 (retrieved 12 minutes ago)

TAF TAF LLBG 161704Z 1618/1718 03005KT CAVOK BECMG 1620/1622 VRB04KT BECMG 1708/1710 30010KT TX34/1712Z TN16/1704Z